createdAt,value
2022-08-17T00:01:26.257Z,99.90
2022-08-17T00:03:37.938Z,99.90
2022-08-17T00:06:14.160Z,99.90
2022-08-17T00:08:20.229Z,99.90
2022-08-17T00:10:23.711Z,99.90
2022-08-17T00:12:40.524Z,99.90
2022-08-17T00:14:46.347Z,99.90
2022-08-17T00:16:56.777Z,99.90
2022-08-17T00:19:08.319Z,99.90
2022-08-17T00:21:12.125Z,99.90
2022-08-17T00:23:17.951Z,99.90
2022-08-17T00:25:20.483Z,99.90
2022-08-17T00:27:23.089Z,99.90
2022-08-17T00:29:25.595Z,99.90
2022-08-17T00:31:28.748Z,99.90
2022-08-17T00:33:31.973Z,99.90
2022-08-17T00:35:35.119Z,99.90
2022-08-17T00:37:37.592Z,99.90
2022-08-17T00:39:40.057Z,99.90
2022-08-17T00:41:42.873Z,99.90
2022-08-17T00:43:52.848Z,99.90
2022-08-17T00:45:55.593Z,99.90
2022-08-17T00:47:58.172Z,99.90
2022-08-17T00:50:00.860Z,99.90
2022-08-17T00:52:12.044Z,99.90
2022-08-17T00:54:28.632Z,99.90
2022-08-17T00:56:40.008Z,99.90
2022-08-17T00:58:42.821Z,99.90
2022-08-17T01:00:47.368Z,99.90
2022-08-17T01:02:50.179Z,99.90
2022-08-17T01:04:54.021Z,99.90
2022-08-17T01:06:58.013Z,99.90
2022-08-17T01:09:02.013Z,99.90
2022-08-17T01:11:06.364Z,99.90
2022-08-17T01:13:08.860Z,99.90
2022-08-17T01:15:12.157Z,99.90
2022-08-17T01:17:14.611Z,99.90
2022-08-17T01:19:28.759Z,99.90
2022-08-17T01:21:50.364Z,99.90
2022-08-17T01:23:53.359Z,99.90
2022-08-17T01:25:59.279Z,99.90
2022-08-17T01:28:02.646Z,99.90
2022-08-17T01:30:57.376Z,99.90
2022-08-17T01:32:56.583Z,99.90
2022-08-17T01:35:00.820Z,99.90
2022-08-17T01:37:03.906Z,99.90
2022-08-17T01:39:09.983Z,99.90
2022-08-17T01:41:16.424Z,99.90
2022-08-17T01:43:31.245Z,99.90
2022-08-17T01:45:44.959Z,99.90
2022-08-17T01:47:47.619Z,99.90
2022-08-17T01:49:50.194Z,99.90
2022-08-17T01:51:52.808Z,99.90
2022-08-17T01:54:00.398Z,99.90
2022-08-17T01:56:07.920Z,99.90
2022-08-17T01:58:10.508Z,99.90
2022-08-17T02:00:14.571Z,99.90
2022-08-17T02:02:30.371Z,99.90
2022-08-17T02:04:35.070Z,99.90
2022-08-17T02:06:45.167Z,99.90
2022-08-17T02:09:01.780Z,99.90
2022-08-17T02:11:11.598Z,99.90
2022-08-17T02:13:14.470Z,99.90
2022-08-17T02:15:21.578Z,99.90
2022-08-17T02:17:24.146Z,99.90
2022-08-17T02:19:26.715Z,99.90
2022-08-17T02:21:29.476Z,99.90
2022-08-17T02:23:36.626Z,99.90
2022-08-17T02:25:42.230Z,99.90
2022-08-17T02:27:45.055Z,99.90
2022-08-17T02:29:47.662Z,99.90
2022-08-17T02:31:50.255Z,99.90
2022-08-17T02:34:00.417Z,99.90
2022-08-17T02:36:11.000Z,99.90
2022-08-17T02:38:13.681Z,99.90
2022-08-17T02:40:17.196Z,99.90
2022-08-17T02:42:40.814Z,99.90
2022-08-17T02:44:43.585Z,99.90
2022-08-17T02:46:46.053Z,99.90
2022-08-17T02:48:48.950Z,99.90
2022-08-17T02:50:51.802Z,99.90
2022-08-17T02:53:02.532Z,99.90
2022-08-17T02:55:11.279Z,99.90
2022-08-17T02:57:13.977Z,99.90
2022-08-17T02:59:16.731Z,99.90
2022-08-17T03:01:19.370Z,99.90
2022-08-17T03:03:21.879Z,99.90
2022-08-17T03:05:27.963Z,99.90
2022-08-17T03:07:31.714Z,99.90
2022-08-17T03:09:34.475Z,99.90
2022-08-17T03:11:37.012Z,99.90
2022-08-17T03:13:39.776Z,99.90
2022-08-17T03:15:47.430Z,99.90
2022-08-17T03:17:50.630Z,99.90
2022-08-17T03:19:53.559Z,99.90
2022-08-17T03:21:58.587Z,99.90
2022-08-17T03:24:01.568Z,99.90
2022-08-17T03:26:15.308Z,99.90
2022-08-17T03:28:18.796Z,99.90
2022-08-17T03:30:25.346Z,99.90
2022-08-17T03:32:27.946Z,99.90
2022-08-17T03:34:30.472Z,99.90
2022-08-17T03:36:35.949Z,99.90
2022-08-17T03:38:39.538Z,99.90
2022-08-17T03:40:56.236Z,99.90
2022-08-17T03:43:09.947Z,99.90
2022-08-17T03:45:18.008Z,99.90
2022-08-17T03:47:39.717Z,99.90
2022-08-17T03:50:02.568Z,99.90
2022-08-17T03:52:23.868Z,99.90
2022-08-17T03:54:45.400Z,99.90
2022-08-17T03:56:59.195Z,99.90
2022-08-17T03:59:01.700Z,99.90
2022-08-17T04:01:08.064Z,99.90
2022-08-17T04:03:10.642Z,99.90
2022-08-17T04:05:15.025Z,99.90
2022-08-17T04:07:19.221Z,99.90
2022-08-17T04:09:21.971Z,99.90
2022-08-17T04:11:24.699Z,99.90
2022-08-17T04:13:27.810Z,99.90
2022-08-17T04:15:31.329Z,99.90
2022-08-17T04:17:33.969Z,99.90
2022-08-17T04:19:36.718Z,99.90
2022-08-17T04:21:39.438Z,99.90
2022-08-17T04:23:42.001Z,99.90
2022-08-17T04:25:51.240Z,99.90
2022-08-17T04:27:55.026Z,99.90
2022-08-17T04:29:58.783Z,99.90
2022-08-17T04:32:03.111Z,99.90
2022-08-17T04:34:05.536Z,99.90
2022-08-17T04:36:08.871Z,99.90
2022-08-17T04:38:17.188Z,99.90
2022-08-17T04:40:40.790Z,99.90
2022-08-17T04:42:43.458Z,99.90
2022-08-17T04:44:46.035Z,99.90
2022-08-17T04:46:50.496Z,99.90
2022-08-17T04:48:55.914Z,99.90
2022-08-17T04:51:01.083Z,99.90
2022-08-17T04:53:03.672Z,99.90
2022-08-17T04:55:06.498Z,99.90
2022-08-17T04:57:09.187Z,99.90
2022-08-17T04:59:17.347Z,99.90
2022-08-17T05:01:23.439Z,99.90
2022-08-17T05:03:32.112Z,99.90
2022-08-17T05:05:39.751Z,99.90
2022-08-17T05:07:42.894Z,99.90
2022-08-17T05:09:45.544Z,99.90
2022-08-17T05:11:49.416Z,99.90
2022-08-17T05:13:57.855Z,99.90
2022-08-17T05:16:02.679Z,99.90
2022-08-17T05:18:07.312Z,99.90
2022-08-17T05:20:10.304Z,99.90
2022-08-17T05:22:14.634Z,99.90
2022-08-17T05:24:38.441Z,99.90
2022-08-17T05:26:39.676Z,99.90
2022-08-17T05:28:46.093Z,99.90
2022-08-17T05:30:49.751Z,99.90
2022-08-17T05:33:01.663Z,99.90
2022-08-17T05:35:05.224Z,99.90
2022-08-17T05:37:07.820Z,99.90
2022-08-17T05:39:16.462Z,99.90
2022-08-17T05:41:19.653Z,99.90
2022-08-17T05:43:31.538Z,99.90
2022-08-17T05:45:54.592Z,99.90
2022-08-17T05:47:58.079Z,99.90
2022-08-17T05:50:02.013Z,99.90
2022-08-17T05:52:12.690Z,99.90
2022-08-17T05:54:51.743Z,99.90
2022-08-17T05:57:27.262Z,99.90
2022-08-17T05:59:30.554Z,99.90
2022-08-17T06:02:06.189Z,99.90
2022-08-17T06:04:34.868Z,99.90
2022-08-17T06:06:58.341Z,99.90
2022-08-17T06:09:24.790Z,99.90
2022-08-17T06:11:58.743Z,99.90
2022-08-17T06:14:10.507Z,99.90
2022-08-17T06:16:33.656Z,99.90
2022-08-17T06:19:08.613Z,99.90
2022-08-17T06:21:15.156Z,99.90
2022-08-17T06:23:41.944Z,99.90
2022-08-17T06:25:55.577Z,99.90
2022-08-17T06:28:04.769Z,99.90
2022-08-17T06:30:20.734Z,99.90
2022-08-17T06:32:25.305Z,99.90
2022-08-17T06:34:28.204Z,99.90
2022-08-17T06:36:48.611Z,99.90
2022-08-17T06:39:18.899Z,99.90
2022-08-17T06:41:30.259Z,99.90
2022-08-17T06:44:43.463Z,99.90
2022-08-17T06:46:48.935Z,99.90
2022-08-17T06:49:09.697Z,99.90
2022-08-17T06:51:23.552Z,99.90
2022-08-17T06:53:53.872Z,99.90
2022-08-17T06:56:08.815Z,99.90
2022-08-17T06:58:16.503Z,99.90
2022-08-17T07:00:23.965Z,99.90
2022-08-17T07:02:54.368Z,99.90
2022-08-17T07:05:01.862Z,99.90
2022-08-17T07:07:28.518Z,99.90
2022-08-17T07:09:37.967Z,99.90
2022-08-17T07:11:47.555Z,99.90
2022-08-17T07:14:24.785Z,99.90
2022-08-17T07:16:47.099Z,99.90
2022-08-17T07:18:54.769Z,99.90
2022-08-17T07:21:05.303Z,99.90
2022-08-17T07:23:14.888Z,99.90
2022-08-17T07:25:18.686Z,99.90
2022-08-17T07:27:51.413Z,99.90
2022-08-17T07:30:12.137Z,99.90
2022-08-17T07:32:19.024Z,99.90
2022-08-17T07:34:21.550Z,99.90
2022-08-17T07:36:29.827Z,99.90
2022-08-17T07:38:35.785Z,99.90
2022-08-17T07:40:42.670Z,99.90
2022-08-17T07:43:05.621Z,99.90
2022-08-17T07:45:28.596Z,99.90
2022-08-17T07:47:49.709Z,99.90
2022-08-17T07:49:52.349Z,99.90
2022-08-17T07:52:47.509Z,99.90
2022-08-17T07:54:29.603Z,99.90
2022-08-17T07:56:49.975Z,99.90
2022-08-17T07:59:07.626Z,99.90
2022-08-17T08:01:15.562Z,99.90
2022-08-17T08:03:31.976Z,99.90
2022-08-17T08:05:50.266Z,99.90
2022-08-17T08:08:00.730Z,99.90
2022-08-17T08:10:14.092Z,99.90
2022-08-17T08:12:48.386Z,99.90
2022-08-17T08:15:18.943Z,99.90
2022-08-17T08:17:26.269Z,99.90
2022-08-17T08:19:31.092Z,99.90
2022-08-17T08:21:43.092Z,99.90
2022-08-17T08:24:00.169Z,99.90
2022-08-17T08:26:15.198Z,99.90
2022-08-17T08:28:45.958Z,99.90
2022-08-17T08:30:59.198Z,99.90
2022-08-17T08:33:12.560Z,99.90
2022-08-17T08:35:53.683Z,99.90
2022-08-17T08:38:37.562Z,99.90
2022-08-17T08:40:49.881Z,99.90
2022-08-17T08:43:02.374Z,99.90
2022-08-17T08:45:10.873Z,99.90
2022-08-17T08:47:32.103Z,99.90
2022-08-17T08:50:02.731Z,99.90
2022-08-17T08:52:08.415Z,97.90
2022-08-17T08:54:33.408Z,99.10
2022-08-17T08:57:19.820Z,99.20
2022-08-17T08:59:15.416Z,98.20
2022-08-17T09:01:35.103Z,97.10
2022-08-17T09:03:52.402Z,96.00
2022-08-17T09:06:28.679Z,96.20
2022-08-17T09:08:55.559Z,95.30
2022-08-17T09:11:09.427Z,94.00
2022-08-17T09:13:37.270Z,94.40
2022-08-17T09:15:45.867Z,91.00
2022-08-17T09:19:00.285Z,89.40
2022-08-17T09:20:49.591Z,89.10
2022-08-17T09:23:13.008Z,88.50
2022-08-17T09:25:52.119Z,90.90
2022-08-17T09:28:19.201Z,91.40
2022-08-17T09:30:22.045Z,89.40
2022-08-17T09:32:38.091Z,86.00
2022-08-17T09:34:48.599Z,84.00
2022-08-17T09:37:24.684Z,82.80
2022-08-17T09:39:46.500Z,81.60
2022-08-17T09:41:58.510Z,80.00
2022-08-17T09:44:22.750Z,79.00
2022-08-17T09:46:31.392Z,76.40
2022-08-17T09:48:43.647Z,74.40
2022-08-17T09:51:13.413Z,72.00
2022-08-17T09:53:15.959Z,69.10
2022-08-17T09:55:18.835Z,69.40
2022-08-17T09:57:30.284Z,67.20
2022-08-17T09:59:56.686Z,68.70
2022-08-17T10:01:59.272Z,66.20
2022-08-17T10:04:32.702Z,65.20
2022-08-17T10:06:47.716Z,63.60
2022-08-17T10:09:13.211Z,63.40
2022-08-17T10:11:45.541Z,65.90
2022-08-17T10:13:59.753Z,64.90
2022-08-17T10:16:37.386Z,63.20
2022-08-17T10:19:05.471Z,61.70
2022-08-17T10:21:32.304Z,60.50
2022-08-17T10:23:55.224Z,61.90
2022-08-17T10:26:16.865Z,58.90
2022-08-17T10:28:29.531Z,57.10
2022-08-17T10:30:37.798Z,55.90
2022-08-17T10:33:02.961Z,55.50
2022-08-17T10:35:25.800Z,56.00
2022-08-17T10:37:34.150Z,56.80
2022-08-17T10:40:10.395Z,54.80
2022-08-17T10:42:42.935Z,54.70
2022-08-17T10:45:00.467Z,55.70
2022-08-17T10:47:05.895Z,54.90
2022-08-17T10:49:17.235Z,56.20
2022-08-17T10:51:38.523Z,57.80
2022-08-17T10:53:46.015Z,56.30
2022-08-17T10:56:22.413Z,57.60
2022-08-17T10:58:28.621Z,57.20
2022-08-17T11:00:40.152Z,55.50
2022-08-17T11:02:54.366Z,57.50
2022-08-17T11:05:14.259Z,57.60
2022-08-17T11:07:22.331Z,55.30
2022-08-17T11:09:46.496Z,54.90
2022-08-17T11:12:19.056Z,54.70
2022-08-17T11:14:27.344Z,55.90
2022-08-17T11:16:35.716Z,57.20
2022-08-17T11:18:45.112Z,58.10
2022-08-17T11:21:29.429Z,58.00
2022-08-17T11:24:03.385Z,57.70
2022-08-17T11:26:30.252Z,59.80
2022-08-17T11:28:46.144Z,59.00
2022-08-17T11:30:51.823Z,59.50
2022-08-17T11:32:55.826Z,61.00
2022-08-17T11:35:36.278Z,62.00
2022-08-17T11:38:04.688Z,63.30
2022-08-17T11:40:20.033Z,63.60
2022-08-17T11:42:40.471Z,63.70
2022-08-17T11:45:15.092Z,64.00
2022-08-17T11:48:28.894Z,63.80
2022-08-17T11:51:05.803Z,64.50
2022-08-17T11:53:37.485Z,61.80
2022-08-17T11:55:44.718Z,63.20
2022-08-17T11:57:59.898Z,63.60
2022-08-17T12:00:12.662Z,65.10
2022-08-17T12:02:31.369Z,66.30
2022-08-17T12:04:35.889Z,67.90
2022-08-17T12:06:49.138Z,68.50
2022-08-17T12:08:55.315Z,67.60
2022-08-17T12:11:10.784Z,68.70
2022-08-17T12:13:16.415Z,69.70
2022-08-17T12:15:30.016Z,71.10
2022-08-17T12:17:40.915Z,71.80
2022-08-17T12:19:44.775Z,72.00
2022-08-17T12:22:13.405Z,72.50
2022-08-17T12:24:47.919Z,71.70
2022-08-17T12:26:57.013Z,71.80
2022-08-17T12:29:06.401Z,69.30
2022-08-17T12:31:26.557Z,66.80
2022-08-17T12:33:29.653Z,67.90
2022-08-17T12:35:36.198Z,70.00
2022-08-17T12:37:47.272Z,71.20
2022-08-17T12:40:31.566Z,71.80
2022-08-17T12:42:39.436Z,72.20
2022-08-17T12:44:50.082Z,71.20
2022-08-17T12:47:04.730Z,70.70
2022-08-17T12:49:25.339Z,70.40
2022-08-17T12:51:29.196Z,71.70
2022-08-17T12:53:35.905Z,72.50
2022-08-17T12:55:39.080Z,73.20
2022-08-17T12:57:44.317Z,72.60
2022-08-17T12:59:54.855Z,74.40
2022-08-17T13:01:57.779Z,76.50
2022-08-17T13:04:00.898Z,75.00
2022-08-17T13:06:11.144Z,75.40
2022-08-17T13:08:16.830Z,75.60
2022-08-17T13:10:30.024Z,76.60
2022-08-17T13:12:36.129Z,77.10
2022-08-17T13:14:44.811Z,78.40
2022-08-17T13:16:56.100Z,76.90
2022-08-17T13:19:16.952Z,76.80
2022-08-17T13:21:19.562Z,76.10
2022-08-17T13:23:22.049Z,75.40
2022-08-17T13:25:25.578Z,75.90
2022-08-17T13:27:29.272Z,74.50
2022-08-17T13:29:39.726Z,74.30
2022-08-17T13:31:52.704Z,74.20
2022-08-17T13:34:27.044Z,75.40
2022-08-17T13:36:33.998Z,73.70
2022-08-17T13:38:49.735Z,73.00
2022-08-17T13:40:53.482Z,70.40
2022-08-17T13:42:57.453Z,71.30
2022-08-17T13:45:02.215Z,72.00
2022-08-17T13:47:25.290Z,72.90
2022-08-17T13:49:41.723Z,71.60
2022-08-17T13:51:51.765Z,67.20
2022-08-17T13:54:00.671Z,66.10
2022-08-17T13:56:38.722Z,67.20
2022-08-17T13:58:38.651Z,66.60
2022-08-17T14:00:41.124Z,66.50
2022-08-17T14:02:43.695Z,67.60
2022-08-17T14:04:47.788Z,67.40
2022-08-17T14:06:57.756Z,68.90
2022-08-17T14:09:04.097Z,66.90
2022-08-17T14:11:09.344Z,68.40
2022-08-17T14:13:13.576Z,68.00
2022-08-17T14:15:20.540Z,67.80
2022-08-17T14:17:24.647Z,66.10
2022-08-17T14:19:27.260Z,66.90
2022-08-17T14:21:30.194Z,66.60
2022-08-17T14:23:32.995Z,66.80
2022-08-17T14:25:35.956Z,67.20
2022-08-17T14:27:51.869Z,65.90
2022-08-17T14:29:56.510Z,67.30
2022-08-17T14:32:04.391Z,68.00
2022-08-17T14:34:07.676Z,68.50
2022-08-17T14:36:10.691Z,69.40
2022-08-17T14:38:15.161Z,68.00
2022-08-17T14:40:20.918Z,67.10
2022-08-17T14:42:26.359Z,67.90
2022-08-17T14:44:28.897Z,68.90
2022-08-17T14:46:32.673Z,70.50
2022-08-17T14:48:38.523Z,70.10
2022-08-17T14:50:43.303Z,70.80
2022-08-17T14:52:49.067Z,69.90
2022-08-17T14:54:57.588Z,70.00
2022-08-17T14:57:22.531Z,69.90
2022-08-17T14:59:23.111Z,68.60
2022-08-17T15:01:27.086Z,68.40
2022-08-17T15:03:30.523Z,69.00
2022-08-17T15:05:35.531Z,70.70
2022-08-17T15:07:38.117Z,73.10
2022-08-17T15:09:40.946Z,75.70
2022-08-17T15:11:43.529Z,73.40
2022-08-17T15:13:52.523Z,71.60
2022-08-17T15:15:56.240Z,71.20
2022-08-17T15:18:00.026Z,70.00
2022-08-17T15:20:03.912Z,69.60
2022-08-17T15:22:07.365Z,70.20
2022-08-17T15:24:09.938Z,68.90
2022-08-17T15:26:12.534Z,68.80
2022-08-17T15:28:15.442Z,68.20
2022-08-17T15:30:18.019Z,68.90
2022-08-17T15:32:33.158Z,69.30
2022-08-17T15:34:36.515Z,69.90
2022-08-17T15:36:49.261Z,69.80
2022-08-17T15:38:52.402Z,71.70
2022-08-17T15:40:55.389Z,73.10
2022-08-17T15:42:57.921Z,73.30
2022-08-17T15:45:08.361Z,72.80
2022-08-17T15:47:11.356Z,74.50
2022-08-17T15:49:15.044Z,72.40
2022-08-17T15:51:21.335Z,72.10
2022-08-17T15:53:23.798Z,73.30
2022-08-17T15:55:29.656Z,74.10
2022-08-17T15:57:33.846Z,73.00
2022-08-17T15:59:36.379Z,72.80
2022-08-17T16:02:59.354Z,72.00
2022-08-17T16:04:06.667Z,72.70
2022-08-17T16:06:11.338Z,73.30
2022-08-17T16:08:20.061Z,73.90
2022-08-17T16:10:34.153Z,74.30
2022-08-17T16:12:42.061Z,73.60
2022-08-17T16:14:45.679Z,75.20
2022-08-17T16:16:48.184Z,76.20
2022-08-17T16:18:53.558Z,76.60
2022-08-17T16:21:24.327Z,74.90
2022-08-17T16:23:27.048Z,73.50
2022-08-17T16:25:49.054Z,73.90
2022-08-17T16:27:56.023Z,72.60
2022-08-17T16:29:58.652Z,72.30
2022-08-17T16:32:13.615Z,72.60
2022-08-17T16:34:18.648Z,72.40
2022-08-17T16:36:23.256Z,72.40
2022-08-17T16:38:25.707Z,72.70
2022-08-17T16:40:31.276Z,72.70
2022-08-17T16:42:39.842Z,71.30
2022-08-17T16:44:42.336Z,70.20
2022-08-17T16:46:46.481Z,70.50
2022-08-17T16:48:48.985Z,70.40
2022-08-17T16:50:59.933Z,72.00
2022-08-17T16:53:18.033Z,73.30
2022-08-17T16:55:22.750Z,77.30
2022-08-17T16:57:25.590Z,79.60
2022-08-17T16:59:30.925Z,80.80
2022-08-17T17:01:43.459Z,82.10
2022-08-17T17:03:53.126Z,83.50
2022-08-17T17:06:46.754Z,84.60
2022-08-17T17:08:58.905Z,86.70
2022-08-17T17:11:18.308Z,87.90
2022-08-17T17:13:35.035Z,89.10
2022-08-17T17:15:54.412Z,90.20
2022-08-17T17:18:06.774Z,90.70
2022-08-17T17:20:38.128Z,91.50
2022-08-17T17:23:01.917Z,92.40
2022-08-17T17:25:14.365Z,93.80
2022-08-17T17:27:47.451Z,94.70
2022-08-17T17:29:58.906Z,95.70
2022-08-17T17:32:52.901Z,96.20
2022-08-17T17:35:05.091Z,96.90
2022-08-17T17:37:14.598Z,98.50
2022-08-17T17:39:31.912Z,98.50
2022-08-17T17:41:50.141Z,99.20
2022-08-17T17:44:08.033Z,99.90
2022-08-17T17:46:27.165Z,99.90
2022-08-17T17:48:31.469Z,99.90
2022-08-17T17:50:59.128Z,99.90
2022-08-17T17:53:35.252Z,99.90
2022-08-17T17:56:05.572Z,99.90
2022-08-17T17:58:19.706Z,99.90
2022-08-17T18:00:39.866Z,99.90
2022-08-17T18:03:13.022Z,99.90
2022-08-17T18:05:28.313Z,99.90
2022-08-17T18:08:10.832Z,99.90
2022-08-17T18:10:29.371Z,99.90
2022-08-17T18:12:57.055Z,99.90
2022-08-17T18:15:11.665Z,99.90
2022-08-17T18:17:14.596Z,99.90
2022-08-17T18:19:22.542Z,99.90
2022-08-17T18:21:35.024Z,99.90
2022-08-17T18:23:45.391Z,99.90
2022-08-17T18:25:49.584Z,99.90
2022-08-17T18:27:52.898Z,99.90
2022-08-17T18:29:58.498Z,99.90
2022-08-17T18:32:28.884Z,99.90
2022-08-17T18:34:48.551Z,99.90
2022-08-17T18:36:52.931Z,99.90
2022-08-17T18:39:14.564Z,99.90
2022-08-17T18:41:26.207Z,99.90
2022-08-17T18:43:52.984Z,99.90
2022-08-17T18:46:16.028Z,99.90
2022-08-17T18:48:49.358Z,99.90
2022-08-17T18:50:55.530Z,99.90
2022-08-17T18:53:20.643Z,99.90
2022-08-17T18:55:31.258Z,99.90
2022-08-17T18:57:38.214Z,99.90
2022-08-17T18:59:48.416Z,99.90
2022-08-17T19:01:59.224Z,99.90
2022-08-17T19:04:03.610Z,99.90
2022-08-17T19:06:30.123Z,99.90
2022-08-17T19:08:35.752Z,99.90
2022-08-17T19:10:46.382Z,99.90
2022-08-17T19:13:30.100Z,99.90
2022-08-17T19:15:39.768Z,99.90
2022-08-17T19:17:46.610Z,99.90
2022-08-17T19:19:56.405Z,99.90
2022-08-17T19:22:07.396Z,99.90
2022-08-17T19:24:27.689Z,99.90
2022-08-17T19:26:53.852Z,99.90
2022-08-17T19:29:03.338Z,99.90
2022-08-17T19:31:20.413Z,99.90
2022-08-17T19:33:23.645Z,99.90
2022-08-17T19:35:44.546Z,99.90
2022-08-17T19:37:53.679Z,99.90
2022-08-17T19:40:41.643Z,99.90
2022-08-17T19:42:59.802Z,99.90
2022-08-17T19:45:16.786Z,99.90
2022-08-17T19:47:55.419Z,99.90
2022-08-17T19:50:16.674Z,99.90
2022-08-17T19:52:24.199Z,99.90
2022-08-17T19:54:35.914Z,99.90
2022-08-17T19:57:01.729Z,99.90
2022-08-17T19:59:18.682Z,99.90
2022-08-17T20:01:35.545Z,99.90
2022-08-17T20:03:52.861Z,99.90
2022-08-17T20:06:13.049Z,99.90
2022-08-17T20:08:20.947Z,99.90
2022-08-17T20:10:55.056Z,99.90
2022-08-17T20:13:06.458Z,99.90
2022-08-17T20:15:13.059Z,99.90
2022-08-17T20:17:15.726Z,99.90
2022-08-17T20:19:28.624Z,99.90
2022-08-17T20:21:39.633Z,99.90
2022-08-17T20:23:50.791Z,99.90
2022-08-17T20:26:06.018Z,99.90
2022-08-17T20:28:30.631Z,99.90
2022-08-17T20:30:37.710Z,99.90
2022-08-17T20:32:49.574Z,99.90
2022-08-17T20:35:05.819Z,99.90
2022-08-17T20:37:28.666Z,99.90
2022-08-17T20:40:08.830Z,99.90
2022-08-17T20:42:20.113Z,99.90
2022-08-17T20:44:32.853Z,99.90
2022-08-17T20:46:38.336Z,99.90
2022-08-17T20:48:52.046Z,99.90
2022-08-17T20:51:00.934Z,99.90
2022-08-17T20:53:07.216Z,99.90
2022-08-17T20:55:51.448Z,99.90
2022-08-17T20:57:54.737Z,99.90
2022-08-17T21:00:40.516Z,99.90
2022-08-17T21:02:50.495Z,99.90
2022-08-17T21:04:54.377Z,99.90
2022-08-17T21:07:43.117Z,99.90
2022-08-17T21:09:46.773Z,99.90
2022-08-17T21:12:04.083Z,99.90
2022-08-17T21:14:36.556Z,99.90
2022-08-17T21:16:57.868Z,99.90
2022-08-17T21:19:30.951Z,99.90
2022-08-17T21:22:02.907Z,99.90
2022-08-17T21:24:20.558Z,99.90
2022-08-17T21:26:55.488Z,99.90
2022-08-17T21:29:31.753Z,99.90
2022-08-17T21:31:49.061Z,99.90
2022-08-17T21:34:11.641Z,99.90
2022-08-17T21:36:17.213Z,99.90
2022-08-17T21:38:23.300Z,99.90
2022-08-17T21:40:29.258Z,99.90
2022-08-17T21:42:35.905Z,99.90
2022-08-17T21:44:49.431Z,99.90
2022-08-17T21:46:53.633Z,99.90
2022-08-17T21:49:02.686Z,99.90
2022-08-17T21:51:23.446Z,99.90
2022-08-17T21:53:33.967Z,99.90
2022-08-17T21:55:37.523Z,99.90
2022-08-17T21:57:52.977Z,99.90
2022-08-17T22:00:16.309Z,99.90
2022-08-17T22:02:22.056Z,99.90
2022-08-17T22:04:34.042Z,99.90
2022-08-17T22:06:41.056Z,99.90
2022-08-17T22:08:59.437Z,99.90
2022-08-17T22:11:02.473Z,99.90
2022-08-17T22:13:24.179Z,99.90
2022-08-17T22:15:34.870Z,99.90
2022-08-17T22:17:46.764Z,99.90
2022-08-17T22:19:58.181Z,99.90
2022-08-17T22:22:31.095Z,99.90
2022-08-17T22:24:36.815Z,99.90
2022-08-17T22:27:03.349Z,99.90
2022-08-17T22:29:05.927Z,99.90
2022-08-17T22:31:53.347Z,99.90
2022-08-17T22:34:01.471Z,99.90
2022-08-17T22:36:22.820Z,99.90
2022-08-17T22:38:27.672Z,99.90
2022-08-17T22:40:34.514Z,99.90
2022-08-17T22:42:48.796Z,99.90
2022-08-17T22:44:53.419Z,99.90
2022-08-17T22:47:24.411Z,99.90
2022-08-17T22:49:29.340Z,99.90
2022-08-17T22:51:31.991Z,99.90
2022-08-17T22:53:54.738Z,99.90
2022-08-17T22:56:16.536Z,99.90
2022-08-17T22:58:42.086Z,99.90
2022-08-17T23:00:48.404Z,99.90
2022-08-17T23:03:26.559Z,99.90
2022-08-17T23:05:29.620Z,99.90
2022-08-17T23:07:32.127Z,99.90
2022-08-17T23:09:36.012Z,99.90
2022-08-17T23:11:48.754Z,99.90
2022-08-17T23:13:57.597Z,99.90
2022-08-17T23:16:00.212Z,99.90
2022-08-17T23:18:05.130Z,99.90
2022-08-17T23:20:12.068Z,99.90
2022-08-17T23:22:14.592Z,99.90
2022-08-17T23:24:23.897Z,99.90
2022-08-17T23:26:27.832Z,99.90
2022-08-17T23:28:30.366Z,99.90
2022-08-17T23:30:41.105Z,99.90
2022-08-17T23:32:53.691Z,99.90
2022-08-17T23:34:56.631Z,99.90
2022-08-17T23:36:59.622Z,99.90
2022-08-17T23:39:02.252Z,99.90
2022-08-17T23:41:11.835Z,99.90
2022-08-17T23:43:17.513Z,99.90
2022-08-17T23:45:28.137Z,99.90
2022-08-17T23:47:31.000Z,99.90
2022-08-17T23:49:34.733Z,99.90
2022-08-17T23:51:42.655Z,99.90
2022-08-17T23:53:51.768Z,99.90
2022-08-17T23:56:07.644Z,99.90
2022-08-17T23:58:12.430Z,99.90
